Time;durP1;ratioP1;P1;durP2;ratioP2;P2;SDS_P1;SDS_P2;PMS_P1;PMS_P2;Temp;Humidity;BMP_temperature;BMP_pressure;BME280_temperature;BME280_humidity;BME280_pressure;Samples;Min_cycle;Max_cycle;Signal;HPM_P1;HPM_P2
2022/01/28 00:04:51;;;;;;;14.40;2.55;;;6.30;99.90;;;;;;5095702;28;20059;-73
2022/01/28 00:07:17;;;;;;;27.27;2.97;;;6.20;99.90;;;;;;5095941;28;20028;-74
2022/01/28 00:09:43;;;;;;;18.20;2.60;;;6.20;99.90;;;;;;5089778;28;20054;-74
2022/01/28 00:12:10;;;;;;;19.52;3.03;;;6.20;99.90;;;;;;5075701;28;20028;-74
2022/01/28 00:38:59;;;;;;;31.58;4.00;;;6.20;99.90;;;;;;5093751;28;20385;-71
2022/01/28 00:41:25;;;;;;;14.95;3.08;;;6.10;99.90;;;;;;5095521;28;20027;-73
2022/01/28 00:43:51;;;;;;;16.02;2.80;;;6.10;99.90;;;;;;5095206;28;20032;-72
2022/01/28 00:46:16;;;;;;;17.67;3.35;;;6.10;99.90;;;;;;5095229;28;20027;-72
2022/01/28 00:48:42;;;;;;;17.25;2.63;;;6.10;99.90;;;;;;5094938;28;20042;-73
2022/01/28 00:51:08;;;;;;;17.20;2.75;;;6.10;99.90;;;;;;5095270;28;20039;-74
2022/01/28 00:53:33;;;;;;;18.67;2.67;;;6.10;99.90;;;;;;5094004;28;20032;-74
2022/01/28 00:55:59;;;;;;;18.83;2.83;;;6.10;99.90;;;;;;5095101;28;20024;-74
2022/01/28 00:58:25;;;;;;;26.35;3.42;;;6.20;99.90;;;;;;5094919;28;20084;-73
2022/01/28 01:00:51;;;;;;;31.17;4.63;;;6.20;99.90;;;;;;5095081;28;20464;-74
2022/01/28 01:03:17;;;;;;;19.20;3.00;;;6.20;99.90;;;;;;5094613;28;20028;-74
2022/01/28 01:05:43;;;;;;;13.77;2.42;;;6.20;99.90;;;;;;5094785;28;20028;-74
2022/01/28 01:08:09;;;;;;;27.88;3.25;;;6.10;99.90;;;;;;5094879;28;20069;-73
2022/01/28 01:10:35;;;;;;;24.42;3.47;;;6.20;99.90;;;;;;5081194;28;20032;-73
2022/01/28 01:13:01;;;;;;;17.50;2.17;;;6.20;99.90;;;;;;5074671;28;20480;-73
2022/01/28 01:15:33;;;;;;;22.45;3.03;;;6.10;99.90;;;;;;5074314;28;20036;-71
2022/01/28 01:18:13;;;;;;;22.83;2.63;;;6.20;99.90;;;;;;5073026;28;20040;-72
2022/01/28 01:23:15;;;;;;;24.55;3.50;;;6.20;99.90;;;;;;5074449;28;20107;-73
2022/01/28 01:25:54;;;;;;;27.92;3.55;;;6.10;99.90;;;;;;5074109;28;20028;-73
2022/01/28 01:28:22;;;;;;;16.75;3.42;;;6.10;99.90;;;;;;5094393;28;20052;-73
2022/01/28 01:30:48;;;;;;;13.18;2.70;;;6.00;99.90;;;;;;5094249;28;20024;-71
2022/01/28 01:33:19;;;;;;;21.35;2.97;;;6.10;99.90;;;;;;5094348;28;20452;-73
2022/01/28 01:35:44;;;;;;;18.42;2.72;;;6.00;99.90;;;;;;5094272;28;20130;-72
2022/01/28 01:38:11;;;;;;;21.77;3.47;;;5.90;99.90;;;;;;5093077;28;20050;-73
2022/01/28 01:40:53;;;;;;;19.85;4.25;;;5.80;99.90;;;;;;5093946;28;20108;-75
2022/01/28 01:46:06;;;;;;;;;;;5.70;99.90;;;;;;5094739;28;20106;-75
2022/01/28 01:54:01;;;;;;;11.77;3.72;;;5.60;99.90;;;;;;5093958;28;20534;-74
2022/01/28 01:56:29;;;;;;;19.48;4.18;;;5.50;99.90;;;;;;5093786;28;20484;-74
2022/01/28 01:58:58;;;;;;;16.30;4.22;;;5.40;99.90;;;;;;5093825;28;20546;-74
2022/01/28 02:01:24;;;;;;;13.85;3.50;;;5.40;99.90;;;;;;5093363;28;20031;-74
2022/01/28 02:03:50;;;;;;;23.00;4.10;;;5.30;99.90;;;;;;5094036;28;20028;-72
2022/01/28 02:06:21;;;;;;;19.90;4.30;;;5.30;99.90;;;;;;5093137;28;20036;-74
2022/01/28 02:08:47;;;;;;;20.10;3.88;;;5.30;99.90;;;;;;5092536;28;20433;-74
2022/01/28 02:11:13;;;;;;;22.42;5.13;;;5.30;99.90;;;;;;5093304;28;20028;-74
2022/01/28 02:13:40;;;;;;;31.88;4.63;;;5.20;99.90;;;;;;5093683;28;20464;-73
2022/01/28 02:16:07;;;;;;;14.38;4.18;;;5.30;99.90;;;;;;5092057;28;20035;-73
2022/01/28 02:18:33;;;;;;;24.00;4.68;;;5.30;99.90;;;;;;5093395;28;20104;-74
2022/01/28 02:21:06;;;;;;;16.13;4.45;;;5.30;99.90;;;;;;5092197;28;20067;-73
2022/01/28 02:23:32;;;;;;;22.65;5.22;;;5.10;99.90;;;;;;5093604;28;20090;-73
2022/01/28 02:26:00;;;;;;;25.88;4.63;;;5.10;99.90;;;;;;5093084;28;20034;-74
2022/01/28 02:28:28;;;;;;;23.50;5.50;;;5.10;99.90;;;;;;5093212;28;20032;-73
2022/01/28 02:30:53;;;;;;;25.30;5.88;;;5.00;99.90;;;;;;5093177;28;20044;-73
2022/01/28 02:33:22;;;;;;;24.50;4.85;;;5.00;99.90;;;;;;5093203;28;20110;-73
2022/01/28 02:35:49;;;;;;;24.02;7.88;;;5.00;99.90;;;;;;5093150;28;20054;-73
2022/01/28 02:38:17;;;;;;;21.60;4.82;;;5.10;99.90;;;;;;5093140;28;20028;-74
2022/01/28 02:40:55;;;;;;;24.20;6.18;;;5.00;99.90;;;;;;5093181;28;20038;-73
2022/01/28 02:45:49;;;;;;;26.17;6.28;;;4.90;99.90;;;;;;5092877;28;20516;-74
2022/01/28 02:48:19;;;;;;;23.15;5.10;;;4.90;99.90;;;;;;5089976;28;20430;-74
2022/01/28 02:53:27;;;;;;;29.92;5.65;;;4.80;99.90;;;;;;5072709;28;20043;-73
2022/01/28 02:55:59;;;;;;;21.67;5.10;;;4.80;99.90;;;;;;5072946;28;20032;-73
2022/01/28 02:58:26;;;;;;;23.52;5.95;;;4.90;99.90;;;;;;5072592;28;20457;-73
2022/01/28 03:00:55;;;;;;;24.33;6.78;;;4.80;99.90;;;;;;5072648;28;20120;-74
2022/01/28 03:03:24;;;;;;;21.58;5.18;;;4.80;99.90;;;;;;5072461;28;20029;-73
2022/01/28 03:05:50;;;;;;;28.35;6.80;;;4.70;99.90;;;;;;5072861;28;20563;-74
2022/01/28 03:08:18;;;;;;;30.33;6.78;;;4.60;99.90;;;;;;5072733;28;20026;-73
2022/01/28 03:11:31;;;;;;;27.83;7.38;;;4.60;99.90;;;;;;5086984;28;20032;-72
2022/01/28 03:16:14;;;;;;;31.42;6.57;;;4.50;99.90;;;;;;5092945;28;20043;-73
2022/01/28 03:18:46;;;;;;;25.83;7.78;;;4.60;99.90;;;;;;5096501;28;20131;-73
2022/01/28 03:21:21;;;;;;;29.58;6.43;;;4.50;99.90;;;;;;5096752;28;20064;-73
2022/01/28 03:23:48;;;;;;;26.33;6.82;;;4.50;99.90;;;;;;5096924;28;20032;-73
2022/01/28 03:26:14;;;;;;;26.55;6.72;;;4.50;99.90;;;;;;5096618;28;20031;-73
2022/01/28 03:28:40;;;;;;;25.45;6.22;;;4.50;99.90;;;;;;5096941;28;20361;-74
2022/01/28 03:31:06;;;;;;;19.27;6.97;;;4.50;99.90;;;;;;5096821;28;20032;-73
2022/01/28 03:33:32;;;;;;;29.23;8.20;;;4.50;99.90;;;;;;5096239;28;20070;-73
2022/01/28 03:36:01;;;;;;;31.83;7.22;;;4.50;99.90;;;;;;5087216;28;20029;-73
2022/01/28 03:38:27;;;;;;;38.28;6.93;;;4.50;99.90;;;;;;5075984;28;20047;-73
2022/01/28 03:40:55;;;;;;;28.80;7.00;;;4.50;99.90;;;;;;5076288;28;20029;-73
2022/01/28 03:43:21;;;;;;;21.50;6.43;;;4.60;99.90;;;;;;5075816;28;20362;-72
2022/01/28 03:45:47;;;;;;;29.67;8.40;;;4.60;99.90;;;;;;5075062;28;20031;-73
2022/01/28 03:48:13;;;;;;;22.30;6.80;;;4.50;99.90;;;;;;5074768;28;20036;-73
2022/01/28 03:50:39;;;;;;;27.00;7.07;;;4.60;99.90;;;;;;5076345;28;20020;-73
2022/01/28 03:53:07;;;;;;;37.55;7.85;;;4.60;99.90;;;;;;5075896;28;20043;-73
2022/01/28 03:55:33;;;;;;;29.17;7.85;;;4.50;99.90;;;;;;5075917;28;20028;-73
2022/01/28 03:57:59;;;;;;;35.15;9.02;;;4.60;99.90;;;;;;5075668;28;20037;-73
2022/01/28 04:00:29;;;;;;;30.10;7.97;;;4.50;99.90;;;;;;5075853;28;20029;-72
2022/01/28 04:03:05;;;;;;;23.55;7.50;;;4.50;99.90;;;;;;5075622;28;20047;-74
2022/01/28 04:13:34;;;;;;;32.72;7.63;;;4.30;99.90;;;;;;5095767;28;20039;-73
2022/01/28 04:16:29;;;;;;;22.70;8.45;;;4.40;99.90;;;;;;5094534;28;20020;-72
2022/01/28 04:18:56;;;;;;;27.42;9.02;;;4.50;99.90;;;;;;5075222;28;20503;-73
2022/01/28 04:21:23;;;;;;;30.02;10.25;;;4.50;99.90;;;;;;5075145;28;20044;-73
2022/01/28 04:23:49;;;;;;;32.90;10.27;;;4.30;99.90;;;;;;5075298;28;20044;-73
2022/01/28 04:26:14;;;;;;;34.75;10.45;;;4.30;99.90;;;;;;5078333;28;20016;-72
2022/01/28 04:28:40;;;;;;;34.40;10.02;;;4.30;99.90;;;;;;5095353;28;20036;-73
2022/01/28 04:34:47;;;;;;;33.53;11.15;;;4.20;99.90;;;;;;5014351;28;20092;-71
2022/01/28 04:37:31;;;;;;;24.00;9.13;;;4.20;99.90;;;;;;5015247;28;20038;-72
2022/01/28 04:40:13;;;;;;;21.45;9.40;;;4.10;99.90;;;;;;5015008;28;20665;-71
2022/01/28 04:45:23;;;;;;;32.78;9.75;;;4.20;99.90;;;;;;5015284;28;20033;-72
2022/01/28 05:06:09;;;;;;;36.28;11.27;;;4.00;99.90;;;;;;5014631;28;20470;-69
2022/01/28 05:29:18;;;;;;;36.78;12.82;;;3.80;99.90;;;;;;5014768;28;20072;-72
2022/01/28 05:31:46;;;;;;;34.38;12.27;;;3.90;99.90;;;;;;5014154;28;20026;-72
2022/01/28 05:34:12;;;;;;;34.88;12.23;;;3.90;99.90;;;;;;4996742;28;20479;-72
2022/01/28 05:36:38;;;;;;;42.50;13.13;;;3.90;99.90;;;;;;5014270;28;20048;-71
2022/01/28 05:39:04;;;;;;;37.97;12.50;;;3.80;99.90;;;;;;5013864;28;20104;-72
2022/01/28 05:41:31;;;;;;;44.28;12.93;;;3.80;99.90;;;;;;5013736;28;20030;-72
2022/01/28 05:43:56;;;;;;;30.60;11.80;;;3.70;99.90;;;;;;5014315;28;20489;-72
2022/01/28 05:46:27;;;;;;;44.65;13.65;;;3.70;99.90;;;;;;5014274;28;20034;-71
2022/01/28 05:48:52;;;;;;;36.00;14.32;;;3.70;99.90;;;;;;5014173;28;20034;-71
2022/01/28 05:51:18;;;;;;;33.35;12.27;;;3.70;99.90;;;;;;5013942;28;20037;-72
2022/01/28 05:53:44;;;;;;;32.75;13.50;;;3.70;99.90;;;;;;5013907;28;20072;-71
2022/01/28 05:56:10;;;;;;;45.75;15.52;;;3.80;99.90;;;;;;5013911;28;20037;-72
2022/01/28 05:58:36;;;;;;;36.38;11.80;;;3.70;99.90;;;;;;5013999;28;20038;-72
2022/01/28 06:01:02;;;;;;;39.72;13.38;;;3.70;99.90;;;;;;5013563;28;20033;-72
2022/01/28 06:03:27;;;;;;;39.03;12.88;;;3.70;99.90;;;;;;5013876;28;20030;-72
2022/01/28 06:05:53;;;;;;;35.80;13.30;;;3.80;99.90;;;;;;5013833;28;20521;-72
2022/01/28 06:08:19;;;;;;;41.17;13.77;;;3.80;99.90;;;;;;5013558;28;20033;-72
2022/01/28 06:10:45;;;;;;;33.03;14.48;;;3.80;99.90;;;;;;5013535;28;20029;-72
2022/01/28 06:13:11;;;;;;;32.65;11.98;;;3.80;99.90;;;;;;5013860;28;20029;-72
2022/01/28 06:15:41;;;;;;;33.85;13.55;;;3.70;99.90;;;;;;5013442;28;20474;-72
2022/01/28 06:18:09;;;;;;;44.47;13.27;;;3.70;99.90;;;;;;5013556;28;20509;-72
2022/01/28 06:20:35;;;;;;;39.95;13.55;;;3.60;99.90;;;;;;5013541;28;20038;-72
2022/01/28 06:23:00;;;;;;;36.97;14.23;;;3.60;99.90;;;;;;5013323;28;20049;-72
2022/01/28 06:25:26;;;;;;;37.30;13.88;;;3.70;99.90;;;;;;5013155;28;20042;-72
2022/01/28 06:27:52;;;;;;;38.55;13.43;;;3.60;99.90;;;;;;5012174;28;20026;-72
2022/01/28 06:30:19;;;;;;;50.92;14.35;;;3.60;99.90;;;;;;5013147;28;20470;-71
2022/01/28 06:32:45;;;;;;;37.92;14.50;;;3.60;99.90;;;;;;4995646;28;20406;-71
2022/01/28 06:35:11;;;;;;;49.55;14.27;;;3.70;99.90;;;;;;5013276;28;20034;-71
2022/01/28 06:37:43;;;;;;;63.25;15.77;;;3.70;99.90;;;;;;5012845;28;20030;-69
2022/01/28 06:40:11;;;;;;;50.88;14.65;;;3.60;99.90;;;;;;5013302;28;20088;-69
2022/01/28 06:42:37;;;;;;;42.22;14.35;;;3.60;99.90;;;;;;5011618;28;20498;-69
2022/01/28 06:45:04;;;;;;;44.15;13.13;;;3.60;99.90;;;;;;5013452;28;20033;-68
2022/01/28 06:47:31;;;;;;;37.50;12.77;;;3.60;99.90;;;;;;5013172;28;20474;-69
2022/01/28 06:49:57;;;;;;;58.20;17.65;;;3.70;99.90;;;;;;5013170;28;20029;-72
2022/01/28 06:52:23;;;;;;;31.60;13.25;;;3.60;99.90;;;;;;5011849;28;20097;-71
2022/01/28 06:54:48;;;;;;;46.85;15.25;;;3.60;99.90;;;;;;5013341;28;20597;-72
2022/01/28 06:57:14;;;;;;;47.35;14.52;;;3.70;99.90;;;;;;5011628;28;20362;-71
2022/01/28 06:59:40;;;;;;;45.28;14.80;;;3.60;99.90;;;;;;5009932;28;20030;-70
2022/01/28 07:02:06;;;;;;;45.22;13.20;;;3.60;99.90;;;;;;5013002;28;20041;-75
2022/01/28 07:04:32;;;;;;;47.17;14.18;;;3.70;99.90;;;;;;5012723;28;20029;-71
2022/01/28 07:06:58;;;;;;;43.47;15.65;;;3.60;99.90;;;;;;5012603;28;20045;-70
2022/01/28 07:09:24;;;;;;;53.97;15.13;;;3.60;99.90;;;;;;5012253;28;20072;-69
2022/01/28 07:11:50;;;;;;;49.58;14.82;;;3.70;99.90;;;;;;5012622;28;20040;-69
2022/01/28 07:14:16;;;;;;;51.33;14.73;;;3.70;99.90;;;;;;5011760;28;20132;-70
2022/01/28 07:16:42;;;;;;;62.88;16.27;;;3.60;99.90;;;;;;5004034;28;20054;-69
2022/01/28 07:19:09;;;;;;;44.63;13.95;;;3.50;99.90;;;;;;5001341;28;20069;-69
2022/01/28 07:21:35;;;;;;;46.55;15.38;;;3.50;99.90;;;;;;5001263;28;20448;-70
2022/01/28 07:24:02;;;;;;;45.58;15.48;;;3.50;99.90;;;;;;5006260;28;20137;-70
2022/01/28 07:26:28;;;;;;;42.60;14.43;;;3.50;99.90;;;;;;5001790;28;20459;-70
2022/01/28 07:28:54;;;;;;;59.45;16.58;;;3.50;99.90;;;;;;5002650;28;20033;-71
2022/01/28 07:31:19;;;;;;;62.70;16.55;;;3.60;99.90;;;;;;5000386;28;20034;-70
2022/01/28 07:33:45;;;;;;;65.40;18.48;;;3.60;99.90;;;;;;5047474;22;20053;-71
2022/01/28 07:36:11;;;;;;;54.33;15.23;;;3.50;99.90;;;;;;5048004;28;20025;-74
2022/01/28 07:38:37;;;;;;;47.85;16.55;;;3.60;99.90;;;;;;5049540;28;20037;-73
2022/01/28 07:41:04;;;;;;;48.55;18.23;;;3.70;99.90;;;;;;5049318;28;20038;-74
2022/01/28 07:43:31;;;;;;;42.78;16.10;;;3.90;99.90;;;;;;5052024;28;20097;-72
2022/01/28 07:45:57;;;;;;;65.03;17.77;;;4.00;99.90;;;;;;5038353;28;20504;-74
2022/01/28 07:48:22;;;;;;;59.05;19.45;;;4.10;99.90;;;;;;5037620;28;20013;-74
2022/01/28 07:50:48;;;;;;;51.13;17.58;;;4.00;99.90;;;;;;5045227;28;20469;-74
2022/01/28 07:53:16;;;;;;;56.13;18.83;;;4.00;99.90;;;;;;5044561;28;20029;-72
2022/01/28 07:55:43;;;;;;;55.33;18.65;;;4.00;99.90;;;;;;5049136;28;20025;-73
2022/01/28 07:58:09;;;;;;;49.50;17.13;;;4.20;99.90;;;;;;5050367;28;20028;-73
2022/01/28 08:00:35;;;;;;;42.88;16.52;;;4.20;99.90;;;;;;5052097;28;20095;-74
2022/01/28 08:03:01;;;;;;;45.63;16.02;;;4.10;99.90;;;;;;5052735;28;20469;-73
2022/01/28 08:05:27;;;;;;;50.60;16.55;;;4.20;99.90;;;;;;5055828;28;20465;-73
2022/01/28 08:07:53;;;;;;;60.47;16.98;;;4.00;99.90;;;;;;5053815;28;20036;-74
2022/01/28 08:10:19;;;;;;;50.05;15.70;;;3.90;99.90;;;;;;5054585;28;20374;-74
2022/01/28 08:12:53;;;;;;;61.13;16.92;;;3.90;99.90;;;;;;5055564;28;20055;-74
2022/01/28 08:15:19;;;;;;;50.10;15.15;;;4.00;99.90;;;;;;5055589;28;20439;-74
2022/01/28 08:17:46;;;;;;;60.97;17.77;;;4.00;99.90;;;;;;5048126;28;20030;-74
2022/01/28 08:20:12;;;;;;;53.90;16.42;;;4.00;99.90;;;;;;5044064;28;20091;-74
2022/01/28 08:22:52;;;;;;;48.35;16.20;;;4.10;99.90;;;;;;5043630;28;20029;-73
2022/01/28 08:25:21;;;;;;;43.80;16.60;;;4.10;99.90;;;;;;5049586;28;20063;-73
2022/01/28 08:27:48;;;;;;;46.45;16.67;;;4.20;99.90;;;;;;5045433;28;20075;-73
2022/01/28 08:30:17;;;;;;;46.28;17.13;;;4.30;99.90;;;;;;5050794;28;20047;-73
2022/01/28 08:32:43;;;;;;;39.75;15.07;;;4.40;99.90;;;;;;5047494;28;20056;-73
2022/01/28 08:35:10;;;;;;;48.67;16.10;;;4.40;99.90;;;;;;5055074;28;20555;-74
2022/01/28 08:37:36;;;;;;;44.95;16.58;;;4.50;99.90;;;;;;5055228;28;20499;-73
2022/01/28 08:40:05;;;;;;;37.20;15.45;;;4.50;99.90;;;;;;5055035;28;20051;-79
2022/01/28 08:42:31;;;;;;;42.50;16.08;;;4.50;99.90;;;;;;5036563;28;20057;-74
2022/01/28 08:44:57;;;;;;;49.90;17.63;;;4.50;99.90;;;;;;5057146;28;20060;-81
2022/01/28 08:47:23;;;;;;;45.42;16.02;;;4.50;99.90;;;;;;5054616;28;20087;-78
2022/01/28 08:49:49;;;;;;;43.08;17.30;;;4.60;99.90;;;;;;5040610;28;20074;-76
2022/01/28 08:52:14;;;;;;;55.10;18.65;;;4.60;99.90;;;;;;5043377;28;20025;-73
2022/01/28 08:54:41;;;;;;;46.13;17.10;;;4.60;99.90;;;;;;5039767;28;20604;-75
2022/01/28 08:57:08;;;;;;;50.17;18.42;;;4.70;99.90;;;;;;5050329;28;20469;-74
2022/01/28 08:59:33;;;;;;;49.95;18.50;;;4.70;99.90;;;;;;5053709;28;20055;-72
2022/01/28 09:01:59;;;;;;;37.38;17.75;;;4.80;99.90;;;;;;5054008;28;20033;-74
2022/01/28 09:04:25;;;;;;;46.72;16.67;;;4.90;99.90;;;;;;5044612;28;20108;-76
2022/01/28 09:06:51;;;;;;;47.72;15.77;;;5.00;99.90;;;;;;5054455;28;20062;-74
2022/01/28 09:09:19;;;;;;;49.22;18.15;;;4.90;99.90;;;;;;5056941;28;20429;-73
2022/01/28 09:14:21;;;;;;;52.55;17.92;;;5.00;99.90;;;;;;5053438;28;20446;-73
2022/01/28 09:16:47;;;;;;;46.53;17.45;;;5.10;99.90;;;;;;5053415;28;20108;-73
2022/01/28 09:19:14;;;;;;;42.72;16.75;;;5.20;99.90;;;;;;5054520;28;20511;-73
2022/01/28 09:21:39;;;;;;;46.80;15.85;;;5.40;99.90;;;;;;5053264;28;20025;-73
2022/01/28 09:24:05;;;;;;;45.42;15.50;;;5.50;99.90;;;;;;5054085;28;20031;-76
2022/01/28 09:26:31;;;;;;;45.85;13.25;;;5.60;99.90;;;;;;5051184;28;20424;-76
2022/01/28 09:28:57;;;;;;;43.60;13.35;;;6.10;99.90;;;;;;5050896;28;20029;-79
2022/01/28 09:31:23;;;;;;;41.60;13.63;;;6.30;99.90;;;;;;5053159;28;20017;-76
2022/01/28 09:33:49;;;;;;;40.63;12.90;;;6.20;99.90;;;;;;5053616;28;20045;-76
2022/01/28 09:36:15;;;;;;;39.85;12.23;;;6.30;99.90;;;;;;5053838;28;20028;-76
2022/01/28 09:38:41;;;;;;;34.10;12.45;;;6.60;99.90;;;;;;5052847;28;20044;-76
2022/01/28 09:41:08;;;;;;;36.42;12.90;;;6.60;99.90;;;;;;5053910;28;20044;-75
2022/01/28 09:43:34;;;;;;;38.70;12.57;;;6.60;99.90;;;;;;5053789;28;20075;-75
2022/01/28 09:46:02;;;;;;;33.88;11.88;;;6.80;99.90;;;;;;5053022;28;20165;-75
2022/01/28 09:48:27;;;;;;;38.17;11.48;;;7.10;99.90;;;;;;5052068;28;20090;-75
2022/01/28 09:50:57;;;;;;;27.75;10.55;;;7.80;99.90;;;;;;5050643;28;20469;-76
2022/01/28 09:53:23;;;;;;;29.38;11.13;;;7.90;99.90;;;;;;5045163;28;20128;-78
2022/01/28 09:55:50;;;;;;;31.17;10.27;;;7.80;99.90;;;;;;5051975;28;20155;-73
2022/01/28 09:58:16;;;;;;;37.58;10.07;;;7.90;99.90;;;;;;5053141;28;20116;-73
2022/01/28 10:00:43;;;;;;;28.92;10.60;;;7.80;99.90;;;;;;5053246;28;20503;-73
2022/01/28 10:03:11;;;;;;;26.45;9.52;;;8.20;99.90;;;;;;5052791;28;20523;-74
2022/01/28 10:05:41;;;;;;;36.03;11.30;;;8.20;99.90;;;;;;5052935;28;20026;-73
2022/01/28 10:08:13;;;;;;;36.50;10.27;;;8.50;99.90;;;;;;5053337;28;20123;-73
2022/01/28 10:11:02;;;;;;;29.27;9.70;;;8.60;99.90;;;;;;5051702;28;20163;-73
2022/01/28 10:13:43;;;;;;;33.00;9.02;;;9.10;99.90;;;;;;5048920;28;20174;-73
2022/01/28 10:16:14;;;;;;;31.02;9.70;;;8.60;99.90;;;;;;5053708;28;20032;-73
2022/01/28 10:18:53;;;;;;;28.60;9.23;;;8.40;99.90;;;;;;5052427;28;20191;-72
2022/01/28 10:21:19;;;;;;;23.15;9.50;;;8.50;99.90;;;;;;5052499;28;20033;-73
2022/01/28 10:24:14;;;;;;;35.30;10.73;;;8.70;99.90;;;;;;5052272;28;20044;-73
2022/01/28 10:27:05;;;;;;;29.90;10.60;;;9.00;99.90;;;;;;5052078;28;20021;-74
2022/01/28 10:29:32;;;;;;;26.88;9.43;;;8.80;99.90;;;;;;5034893;28;20052;-73
2022/01/28 10:32:12;;;;;;;24.73;8.77;;;9.10;99.90;;;;;;5066456;28;20038;-73
2022/01/28 10:34:43;;;;;;;38.10;9.75;;;9.10;99.90;;;;;;5042329;28;20473;-73
2022/01/28 10:37:32;;;;;;;35.13;9.05;;;9.70;99.90;;;;;;5052913;28;20029;-73
2022/01/28 10:40:09;;;;;;;31.73;9.25;;;11.00;99.90;;;;;;5052984;28;20086;-73
2022/01/28 10:42:36;;;;;;;27.00;8.02;;;10.80;99.90;;;;;;5051774;28;20021;-73
2022/01/28 10:45:11;;;;;;;30.13;7.53;;;10.60;99.90;;;;;;5052852;28;20472;-73
2022/01/28 10:47:54;;;;;;;28.65;8.43;;;10.40;99.90;;;;;;5051484;28;20465;-73
2022/01/28 10:50:27;;;;;;;21.75;7.72;;;10.20;99.90;;;;;;5052273;28;20052;-73
2022/01/28 10:53:12;;;;;;;29.33;8.15;;;10.00;99.90;;;;;;5052150;28;20469;-73
2022/01/28 10:55:41;;;;;;;23.90;8.32;;;10.20;99.90;;;;;;5051149;28;20032;-72
2022/01/28 10:58:15;;;;;;;23.88;8.65;;;10.80;99.90;;;;;;5052561;28;20017;-72
2022/01/28 11:00:43;;;;;;;23.98;7.97;;;11.10;99.90;;;;;;5046348;28;20618;-72
2022/01/28 11:03:11;;;;;;;23.17;8.52;;;11.10;99.90;;;;;;5033246;28;20087;-73
2022/01/28 11:05:38;;;;;;;27.75;9.20;;;11.30;99.90;;;;;;5040659;28;20121;-72
2022/01/28 11:08:11;;;;;;;19.10;7.85;;;11.90;99.90;;;;;;5049089;28;20033;-74
2022/01/28 11:10:41;;;;;;;29.30;7.78;;;12.20;99.90;;;;;;5046001;28;20037;-73
2022/01/28 11:13:07;;;;;;;21.92;7.82;;;11.90;99.90;;;;;;5051800;28;20025;-70
2022/01/28 11:15:34;;;;;;;26.55;8.65;;;12.20;99.90;;;;;;5051556;28;20048;-70
2022/01/28 11:18:03;;;;;;;19.17;7.47;;;11.80;99.90;;;;;;5051916;28;20070;-72
2022/01/28 11:20:35;;;;;;;27.35;9.30;;;11.20;99.90;;;;;;5049486;28;20021;-70
2022/01/28 11:23:22;;;;;;;25.80;8.70;;;10.90;99.90;;;;;;5048483;28;20059;-72
2022/01/28 11:25:56;;;;;;;27.92;8.70;;;11.00;99.90;;;;;;5051834;28;20469;-70
2022/01/28 11:28:38;;;;;;;23.70;8.68;;;11.20;99.90;;;;;;5047456;28;20497;-70
2022/01/28 11:31:04;;;;;;;24.95;8.13;;;11.50;99.90;;;;;;5036389;28;20061;-70
2022/01/28 11:33:51;;;;;;;21.63;8.07;;;11.50;99.90;;;;;;5030975;28;20080;-70
2022/01/28 11:36:34;;;;;;;30.05;8.45;;;11.40;99.90;;;;;;5047194;28;20103;-70
2022/01/28 11:39:09;;;;;;;25.13;7.93;;;11.70;99.90;;;;;;5034051;28;20041;-71
2022/01/28 11:41:35;;;;;;;24.27;8.23;;;12.90;99.90;;;;;;5034138;28;20543;-70
2022/01/28 11:44:01;;;;;;;21.98;8.18;;;13.40;99.90;;;;;;5035179;28;20491;-70
2022/01/28 11:46:37;;;;;;;24.20;8.05;;;12.50;99.90;;;;;;5036032;28;20400;-70
2022/01/28 11:49:04;;;;;;;22.83;6.78;;;12.50;99.90;;;;;;5035661;28;20107;-70
2022/01/28 11:51:32;;;;;;;20.40;6.60;;;12.30;99.90;;;;;;5035915;28;20044;-70
2022/01/28 11:54:07;;;;;;;17.27;6.30;;;12.50;99.90;;;;;;5035905;28;20383;-71
2022/01/28 11:56:36;;;;;;;22.70;6.90;;;12.90;99.90;;;;;;5050999;28;20049;-70
2022/01/28 11:59:09;;;;;;;23.98;7.28;;;13.00;99.90;;;;;;5035829;28;20092;-70
2022/01/28 12:01:38;;;;;;;24.25;7.85;;;12.50;99.90;;;;;;5035801;28;20111;-70
2022/01/28 12:04:26;;;;;;;20.55;7.00;;;13.00;99.90;;;;;;5035664;28;20107;-70
2022/01/28 12:07:07;;;;;;;28.30;8.50;;;12.90;99.90;;;;;;5052982;28;20036;-71
2022/01/28 12:09:34;;;;;;;19.87;7.33;;;13.90;99.90;;;;;;5055117;28;20472;-70
2022/01/28 12:12:01;;;;;;;29.75;8.90;;;13.70;99.90;;;;;;5055453;28;20036;-70
2022/01/28 12:14:49;;;;;;;24.27;7.97;;;14.00;99.90;;;;;;5055394;28;20033;-70
2022/01/28 12:17:33;;;;;;;21.02;8.07;;;14.40;99.90;;;;;;5055710;28;20065;-70
2022/01/28 12:20:24;;;;;;;20.65;7.38;;;14.20;99.90;;;;;;5048775;28;20048;-70
2022/01/28 12:23:04;;;;;;;23.33;6.95;;;13.70;99.90;;;;;;5050287;28;20041;-69
2022/01/28 12:25:36;;;;;;;19.80;6.72;;;13.50;99.90;;;;;;5054051;28;20079;-69
2022/01/28 12:28:33;;;;;;;18.20;4.88;;;13.80;99.90;;;;;;5068473;28;20044;-69
2022/01/28 12:31:32;;;;;;;18.45;5.80;;;13.00;99.90;;;;;;5054525;28;20055;-69
2022/01/28 12:34:03;;;;;;;22.10;6.10;;;13.20;99.90;;;;;;5049550;28;20053;-69
2022/01/28 12:36:38;;;;;;;27.95;11.55;;;13.60;99.90;;;;;;5054573;28;20033;-69
2022/01/28 12:39:20;;;;;;;24.30;12.27;;;13.70;99.90;;;;;;5041090;28;20033;-69
2022/01/28 12:41:55;;;;;;;29.90;14.73;;;13.40;99.90;;;;;;5034384;28;20032;-70
2022/01/28 12:44:22;;;;;;;23.23;15.02;;;13.30;99.90;;;;;;5034124;28;20092;-70
2022/01/28 12:46:57;;;;;;;29.52;16.77;;;12.60;99.90;;;;;;5032818;28;20067;-70
2022/01/28 12:49:28;;;;;;;33.05;17.10;;;12.10;99.90;;;;;;5051684;28;20028;-69
2022/01/28 12:51:57;;;;;;;29.98;15.85;;;12.50;99.90;;;;;;5052035;28;20433;-69
2022/01/28 12:54:43;;;;;;;41.00;19.45;;;12.50;99.90;;;;;;5052043;28;20040;-69
2022/01/28 12:57:14;;;;;;;39.35;21.70;;;12.30;99.90;;;;;;5053685;28;20078;-69
2022/01/28 12:59:42;;;;;;;42.00;21.02;;;12.80;99.90;;;;;;5052242;28;20119;-71
2022/01/28 13:02:08;;;;;;;32.83;20.00;;;11.20;99.90;;;;;;5052577;28;20017;-69
2022/01/28 13:04:57;;;;;;;34.42;19.25;;;10.00;99.90;;;;;;5051630;28;20024;-71
2022/01/28 13:09:52;;;;;;;47.08;22.60;;;8.50;99.90;;;;;;5050594;28;20028;-69
2022/01/28 13:12:22;;;;;;;49.35;24.48;;;8.50;99.90;;;;;;5052049;28;20013;-69
2022/01/28 13:14:48;;;;;;;43.42;24.08;;;8.40;99.90;;;;;;5050541;28;20033;-72
2022/01/28 13:17:22;;;;;;;47.63;24.95;;;8.30;99.90;;;;;;5053628;28;20420;-71
2022/01/28 13:20:01;;;;;;;51.35;27.20;;;7.90;99.90;;;;;;5053883;28;20078;-71
2022/01/28 13:22:29;;;;;;;51.20;27.60;;;7.50;99.90;;;;;;5053549;28;20025;-71
2022/01/28 13:24:56;;;;;;;50.47;21.15;;;7.60;99.90;;;;;;5052724;28;20472;-71
2022/01/28 13:27:37;;;;;;;59.65;27.63;;;7.20;99.90;;;;;;5054013;28;20078;-72
2022/01/28 13:30:13;;;;;;;54.50;25.55;;;7.20;99.90;;;;;;5053979;28;20128;-73
2022/01/28 13:32:45;;;;;;;53.60;23.67;;;7.20;99.90;;;;;;5053766;28;20091;-72
2022/01/28 13:35:18;;;;;;;;;;;7.10;99.90;;;;;;5053511;28;20141;-69
2022/01/28 13:37:47;;;;;;;53.33;25.67;;;7.20;99.90;;;;;;5053428;28;19915;-72
2022/01/28 13:40:18;;;;;;;55.22;26.30;;;7.10;99.90;;;;;;5053435;28;20037;-72
2022/01/28 13:43:03;;;;;;;50.80;26.23;;;6.70;99.90;;;;;;5052229;28;20052;-70
2022/01/28 13:45:35;;;;;;;58.58;26.35;;;6.90;99.90;;;;;;5052859;28;20021;-71
2022/01/28 13:48:02;;;;;;;;;;;6.90;99.90;;;;;;5047092;28;20025;-71
2022/01/28 13:50:34;;;;;;;63.97;30.25;;;6.90;99.90;;;;;;5051572;28;19905;-71
2022/01/28 13:56:03;;;;;;;45.28;26.48;;;7.20;99.90;;;;;;5073111;28;20032;-72
2022/01/28 13:58:48;;;;;;;36.15;18.60;;;7.30;99.90;;;;;;5072988;28;20036;-71
2022/01/28 14:01:15;;;;;;;42.53;23.23;;;7.00;99.90;;;;;;5072740;28;20036;-71
2022/01/28 14:03:59;;;;;;;42.28;24.48;;;7.20;99.90;;;;;;5057058;28;20025;-71
2022/01/28 14:06:26;;;;;;;47.13;24.52;;;7.10;99.90;;;;;;5052716;28;20435;-72
2022/01/28 14:08:54;;;;;;;48.75;25.33;;;7.10;99.90;;;;;;5053223;28;20048;-72
2022/01/28 14:11:26;;;;;;;47.88;26.38;;;7.10;99.90;;;;;;5048024;28;20032;-71
2022/01/28 14:14:04;;;;;;;;;;;7.30;99.90;;;;;;5050928;28;20021;-71
2022/01/28 14:16:30;;;;;;;45.22;25.08;;;7.30;99.90;;;;;;5051653;28;20249;-71
2022/01/28 14:18:56;;;;;;;48.65;25.42;;;7.20;99.90;;;;;;5051757;28;20090;-71
2022/01/28 14:21:21;;;;;;;57.38;28.05;;;7.10;99.90;;;;;;5052102;28;20032;-71
2022/01/28 14:23:47;;;;;;;52.95;26.77;;;7.00;99.90;;;;;;5068881;28;20033;-73
2022/01/28 14:26:14;;;;;;;52.50;27.73;;;7.00;99.90;;;;;;5068327;28;20028;-72
2022/01/28 14:29:09;;;;;;;68.13;29.55;;;6.90;99.90;;;;;;5046118;28;20110;-71
2022/01/28 14:31:26;;;;;;;57.92;28.02;;;7.00;99.90;;;;;;5048365;28;20036;-73
2022/01/28 14:33:54;;;;;;;54.38;27.92;;;7.20;99.90;;;;;;5049217;28;20026;-71
2022/01/28 14:36:21;;;;;;;63.65;30.55;;;7.20;99.90;;;;;;5046436;28;20433;-71
2022/01/28 14:38:47;;;;;;;71.07;30.75;;;7.10;99.90;;;;;;5049239;28;20033;-71
2022/01/28 14:41:14;;;;;;;66.55;29.63;;;6.90;99.90;;;;;;5051894;28;20508;-72